Albany, Oregon
Current Conditions -  °F | °C
As of 7:35 AM on Saturday 25 Oct 2014 (Local Time) from KCVO Reporting Station
Few Clouds Few Clouds  
Wind Chill: 11°   Ceiling: Unl
Heat Index: 11°   Visibility: 6mi
Dew Point:   Wind: 8mph
Humidity: 88%   Direction: 30°NNE
Pressure: 29.49"   Gusts: NA
Location:  44.64°N, 123.1°W
Report Text: KCVO 251435Z AUTO 03007KT 6SM FEW020 11/09 A2949 RMK AO1
Loading
Personal Weather Stations






























Interactive Weather Map
Tropical Storm Tracking
New forecast layout! Learn more

10-Day Weather Forecast

Advertisements
Track Severe Weather on mobile